createdAt,value
2023-04-10T00:00:33.014Z,103098.16
2023-04-10T00:03:04.151Z,103106.09
2023-04-10T00:05:31.754Z,103094.63
2023-04-10T00:07:58.606Z,103096.38
2023-04-10T00:10:26.668Z,103099.91
2023-04-10T00:12:54.259Z,103053.16
2023-04-10T00:15:21.265Z,103099.91
2023-04-10T00:17:50.666Z,103068.16
2023-04-10T00:20:17.895Z,103098.13
2023-04-10T00:22:44.868Z,103094.59
2023-04-10T00:25:11.854Z,103093.72
2023-04-10T00:27:38.980Z,103090.22
2023-04-10T00:30:06.733Z,103082.28
2023-04-10T00:32:33.746Z,103052.28
2023-04-10T00:35:01.733Z,103080.50
2023-04-10T00:37:28.728Z,103034.66
2023-04-10T00:39:55.664Z,103086.69
2023-04-10T00:42:22.621Z,103073.47
2023-04-10T00:44:49.492Z,103076.13
2023-04-10T00:47:17.125Z,103077.88
2023-04-10T00:49:44.984Z,103080.50
2023-04-10T00:52:12.029Z,103074.34
2023-04-10T00:54:40.252Z,103069.91
2023-04-10T00:57:07.654Z,103071.69
2023-04-10T00:59:35.949Z,103074.34
2023-04-10T01:02:03.420Z,103078.72
2023-04-10T01:04:33.140Z,103059.31
2023-04-10T01:07:09.115Z,103075.19
2023-04-10T01:09:49.004Z,103067.28
2023-04-10T01:12:16.405Z,103066.44
2023-04-10T01:14:49.196Z,103068.16
2023-04-10T01:17:28.207Z,103052.31
2023-04-10T01:20:12.656Z,103059.34
2023-04-10T01:23:08.709Z,103062.00
2023-04-10T01:25:56.834Z,103047.03
2023-04-10T01:28:33.637Z,103056.72
2023-04-10T01:31:02.750Z,103048.78
2023-04-10T01:34:00.023Z,103048.81
2023-04-10T01:36:32.057Z,103053.22
2023-04-10T01:39:00.277Z,103043.53
2023-04-10T01:41:28.783Z,103041.75
2023-04-10T01:43:59.460Z,103039.13
2023-04-10T01:46:29.619Z,103044.44
2023-04-10T01:49:01.997Z,103038.25
2023-04-10T01:51:31.196Z,102995.00
2023-04-10T01:54:02.539Z,103018.88
2023-04-10T01:56:30.184Z,103044.44
2023-04-10T01:58:57.369Z,103038.25
2023-04-10T02:01:29.680Z,103035.63
2023-04-10T02:03:59.335Z,103038.25
2023-04-10T02:06:35.558Z,103033.88
2023-04-10T02:09:12.128Z,103012.69
2023-04-10T02:11:47.970Z,103039.16
2023-04-10T02:14:18.188Z,103028.63
2023-04-10T02:16:45.703Z,102999.47
2023-04-10T02:19:13.212Z,103028.63
2023-04-10T02:21:42.202Z,102996.00
2023-04-10T02:24:09.094Z,103025.97
2023-04-10T02:26:50.458Z,103027.72
2023-04-10T02:29:17.967Z,103013.66
2023-04-10T02:31:46.207Z,103018.06
2023-04-10T02:34:14.786Z,102974.84
2023-04-10T02:36:42.117Z,103004.84
2023-04-10T02:39:11.525Z,103015.41
2023-04-10T02:41:47.608Z,103015.44
2023-04-10T02:44:14.971Z,103014.53
2023-04-10T02:46:42.926Z,103009.25
2023-04-10T02:49:11.459Z,102992.53
2023-04-10T02:51:38.713Z,102998.69
2023-04-10T02:54:06.003Z,103011.91
2023-04-10T02:56:35.288Z,102997.84
2023-04-10T02:59:02.346Z,102974.03
2023-04-10T03:01:30.957Z,102993.44
2023-04-10T03:03:58.987Z,103000.47
2023-04-10T03:06:32.388Z,102989.03
2023-04-10T03:08:59.595Z,102986.41
2023-04-10T03:11:27.700Z,102991.69
2023-04-10T03:13:55.744Z,102974.91
2023-04-10T03:16:23.154Z,102907.06
2023-04-10T03:18:50.070Z,102993.41
2023-04-10T03:21:17.301Z,102997.84
2023-04-10T03:23:44.207Z,102988.16
2023-04-10T03:26:11.335Z,102988.16
2023-04-10T03:28:39.818Z,102986.41
2023-04-10T03:31:09.887Z,102973.19
2023-04-10T03:33:37.112Z,102988.16
2023-04-10T03:36:05.259Z,102980.22
2023-04-10T03:38:33.621Z,102982.00
2023-04-10T03:41:00.774Z,102963.50
2023-04-10T03:43:33.254Z,102989.94
2023-04-10T03:46:02.617Z,102982.84
2023-04-10T03:48:30.699Z,102979.38
2023-04-10T03:50:58.522Z,102964.34
2023-04-10T03:53:25.670Z,102959.97
2023-04-10T03:55:54.121Z,102978.47
2023-04-10T03:58:22.821Z,102968.78
2023-04-10T04:00:51.199Z,102951.16
2023-04-10T04:03:26.762Z,102969.66
2023-04-10T04:05:59.961Z,102976.72
2023-04-10T04:08:32.486Z,102982.00
2023-04-10T04:11:08.377Z,102977.56
2023-04-10T04:13:42.813Z,102962.59
2023-04-10T04:16:17.075Z,102967.91
2023-04-10T04:19:10.356Z,102960.88
2023-04-10T04:21:50.532Z,102970.53
2023-04-10T04:24:36.080Z,102964.38
2023-04-10T04:27:14.486Z,102966.16
2023-04-10T04:30:02.776Z,102949.41
2023-04-10T04:32:46.958Z,102967.91
2023-04-10T04:35:32.482Z,102963.50
2023-04-10T04:38:20.415Z,102950.31
2023-04-10T04:41:13.692Z,102960.88
2023-04-10T04:44:02.558Z,102962.59
2023-04-10T04:46:48.335Z,102958.22
2023-04-10T04:49:24.840Z,102935.28
2023-04-10T04:52:14.571Z,102954.69
2023-04-10T04:54:45.493Z,102932.63
2023-04-10T04:57:31.022Z,102948.53
2023-04-10T05:00:19.938Z,102959.06
2023-04-10T05:02:55.845Z,102896.53
2023-04-10T05:05:32.379Z,102944.16
2023-04-10T05:08:34.713Z,102930.03
2023-04-10T05:11:23.066Z,102911.53
2023-04-10T05:13:58.845Z,102935.34
2023-04-10T05:16:43.754Z,102927.44
2023-04-10T05:19:19.430Z,102862.22
2023-04-10T05:21:49.376Z,102934.50
2023-04-10T05:24:42.480Z,102932.72
2023-04-10T05:27:29.828Z,102878.06
2023-04-10T05:30:26.093Z,102935.38
2023-04-10T05:33:11.086Z,102934.50
2023-04-10T05:36:02.594Z,102908.06
2023-04-10T05:38:40.438Z,102937.16
2023-04-10T05:41:15.375Z,102934.53
2023-04-10T05:43:59.822Z,102928.34
2023-04-10T05:46:52.333Z,102929.25
2023-04-10T05:49:45.761Z,102931.00
2023-04-10T05:52:18.473Z,102927.50
2023-04-10T05:55:11.439Z,102935.44
2023-04-10T05:57:54.674Z,102926.63
2023-04-10T06:00:50.639Z,102917.81
2023-04-10T06:03:36.583Z,102927.53
2023-04-10T06:06:04.202Z,102916.97
2023-04-10T06:08:32.217Z,102897.59
2023-04-10T06:10:59.572Z,102909.94
2023-04-10T06:13:27.745Z,102905.53
2023-04-10T06:15:58.881Z,102921.38
2023-04-10T06:18:26.440Z,102918.75
2023-04-10T06:20:53.629Z,102918.75
2023-04-10T06:23:21.197Z,102909.94
2023-04-10T06:25:48.132Z,102918.75
2023-04-10T06:28:15.527Z,102913.47
2023-04-10T06:30:44.905Z,102887.97
2023-04-10T06:33:11.981Z,102886.19
2023-04-10T06:35:43.123Z,102902.94
2023-04-10T06:38:10.257Z,102910.84
2023-04-10T06:40:37.798Z,102900.28
2023-04-10T06:43:05.012Z,102902.94
2023-04-10T06:45:38.384Z,102910.84
2023-04-10T06:48:05.913Z,102909.13
2023-04-10T06:50:33.536Z,102894.16
2023-04-10T06:53:00.734Z,102899.44
2023-04-10T06:55:27.766Z,102901.19
2023-04-10T06:57:56.518Z,102908.22
2023-04-10T07:00:23.970Z,102899.44
2023-04-10T07:02:51.100Z,102902.94
2023-04-10T07:05:18.025Z,102899.44
2023-04-10T07:07:45.105Z,102890.63
2023-04-10T07:10:13.151Z,102895.91
2023-04-10T07:12:39.989Z,102893.28
2023-04-10T07:15:08.144Z,102889.78
2023-04-10T07:17:35.512Z,102895.06
2023-04-10T07:20:02.466Z,102884.47
2023-04-10T07:22:29.741Z,102889.75
2023-04-10T07:24:56.587Z,102892.41
2023-04-10T07:27:24.850Z,102882.69
2023-04-10T07:29:55.323Z,102889.75
2023-04-10T07:32:23.274Z,102898.53
2023-04-10T07:34:50.468Z,102890.59
2023-04-10T07:37:18.175Z,102888.84
2023-04-10T07:39:45.310Z,102886.22
2023-04-10T07:42:12.184Z,102880.91
2023-04-10T07:44:39.428Z,102880.06
2023-04-10T07:47:06.577Z,102880.06
2023-04-10T07:49:33.489Z,102876.50
2023-04-10T07:52:00.669Z,102870.31
2023-04-10T07:54:27.774Z,102844.81
2023-04-10T07:56:54.730Z,102872.09
2023-04-10T07:59:22.014Z,102870.28
2023-04-10T08:01:48.985Z,102868.53
2023-04-10T08:04:16.224Z,102872.91
2023-04-10T08:06:43.329Z,102871.16
2023-04-10T08:09:10.339Z,102870.28
2023-04-10T08:11:38.708Z,102861.47
2023-04-10T08:14:07.185Z,102860.53
2023-04-10T08:16:36.099Z,102847.34
2023-04-10T08:19:03.498Z,102844.66
2023-04-10T08:21:32.259Z,102842.00
2023-04-10T08:24:01.508Z,102820.88
2023-04-10T08:26:29.482Z,102848.13
2023-04-10T08:28:58.604Z,102845.47
2023-04-10T08:31:28.102Z,102783.84
2023-04-10T08:33:55.806Z,102830.47
2023-04-10T08:36:23.039Z,102832.22
2023-04-10T08:38:50.142Z,102821.66
2023-04-10T08:41:19.031Z,102829.53
2023-04-10T08:43:46.641Z,102838.31
2023-04-10T08:46:17.245Z,102762.63
2023-04-10T08:48:53.995Z,102798.69
2023-04-10T08:51:26.309Z,102811.84
2023-04-10T08:54:06.177Z,102822.31
2023-04-10T08:56:35.113Z,102822.28
2023-04-10T08:59:03.569Z,102811.72
2023-04-10T09:01:31.541Z,102840.72
2023-04-10T09:03:59.429Z,102792.28
2023-04-10T09:06:27.324Z,102825.63
2023-04-10T09:08:54.259Z,102825.56
2023-04-10T09:11:21.520Z,102824.63
2023-04-10T09:13:48.512Z,102815.72
2023-04-10T09:16:15.737Z,102773.47
2023-04-10T09:18:51.525Z,102804.94
2023-04-10T09:21:20.703Z,102795.09
2023-04-10T09:23:48.684Z,102793.22
2023-04-10T09:26:27.895Z,102793.09
2023-04-10T09:29:02.988Z,102800.91
2023-04-10T09:31:37.512Z,102789.28
2023-04-10T09:34:14.473Z,102788.22
2023-04-10T09:36:43.204Z,102787.16
2023-04-10T09:39:12.280Z,102740.47
2023-04-10T09:41:49.899Z,102784.06
2023-04-10T09:44:20.100Z,102780.31
2023-04-10T09:46:47.198Z,102774.06
2023-04-10T09:49:14.140Z,102790.56
2023-04-10T09:51:41.122Z,102726.25
2023-04-10T09:54:08.168Z,102792.75
2023-04-10T09:56:38.554Z,102792.53
2023-04-10T09:59:07.580Z,102785.19
2023-04-10T10:01:37.609Z,102735.91
2023-04-10T10:04:05.461Z,102780.34
2023-04-10T10:06:33.354Z,102790.78
2023-04-10T10:09:05.311Z,102786.13
2023-04-10T10:11:36.267Z,102781.44
2023-04-10T10:14:09.367Z,102763.69
2023-04-10T10:16:50.373Z,102781.84
2023-04-10T10:19:31.477Z,102778.97
2023-04-10T10:22:01.669Z,102775.16
2023-04-10T10:24:31.690Z,102767.06
2023-04-10T10:27:01.812Z,102771.25
2023-04-10T10:29:32.602Z,102771.06
2023-04-10T10:32:00.598Z,102769.06
2023-04-10T10:34:28.287Z,102765.44
2023-04-10T10:36:55.525Z,102764.22
2023-04-10T10:40:08.175Z,102755.34
2023-04-10T10:42:53.111Z,102768.19
2023-04-10T10:45:30.353Z,102762.72
2023-04-10T10:47:57.437Z,102739.63
2023-04-10T10:50:24.995Z,102761.41
2023-04-10T10:52:53.957Z,102758.50
2023-04-10T10:55:24.889Z,102752.91
2023-04-10T10:57:56.384Z,102755.44
2023-04-10T11:00:25.132Z,102680.44
2023-04-10T11:03:13.361Z,102746.91
2023-04-10T11:06:02.401Z,102739.53
2023-04-10T11:08:45.870Z,102744.59
2023-04-10T11:11:21.885Z,102730.06
2023-04-10T11:13:52.236Z,102727.13
2023-04-10T11:16:21.369Z,102733.09
2023-04-10T11:19:02.743Z,102724.84
2023-04-10T11:21:57.187Z,102727.22
2023-04-10T11:24:24.212Z,102735.09
2023-04-10T11:26:51.375Z,102723.41
2023-04-10T11:29:18.704Z,102719.84
2023-04-10T11:31:56.548Z,102714.50
2023-04-10T11:34:23.791Z,102724.34
2023-04-10T11:36:50.987Z,102725.25
2023-04-10T11:39:19.176Z,102722.56
2023-04-10T11:41:53.353Z,102717.22
2023-04-10T11:44:39.620Z,102716.19
2023-04-10T11:47:06.870Z,102703.72
2023-04-10T11:49:34.777Z,102703.50
2023-04-10T11:52:01.865Z,102648.41
2023-04-10T11:54:29.883Z,102671.09
2023-04-10T11:56:58.298Z,102705.19
2023-04-10T11:59:25.952Z,102694.75
2023-04-10T12:01:56.094Z,102696.34
2023-04-10T12:04:24.372Z,102696.34
2023-04-10T12:06:53.134Z,102688.31
2023-04-10T12:09:21.642Z,102685.63
2023-04-10T12:11:53.148Z,102683.84
2023-04-10T12:14:22.140Z,102687.38
2023-04-10T12:16:52.876Z,102681.03
2023-04-10T12:19:20.767Z,102651.16
2023-04-10T12:21:47.814Z,102670.19
2023-04-10T12:24:42.694Z,102670.13
2023-04-10T12:27:19.534Z,102639.44
2023-04-10T12:29:47.274Z,102661.91
2023-04-10T12:32:14.304Z,102660.88
2023-04-10T12:34:41.308Z,102649.19
2023-04-10T12:37:11.415Z,102652.59
2023-04-10T12:39:38.420Z,102630.44
2023-04-10T12:42:16.613Z,102646.03
2023-04-10T12:45:00.444Z,102609.34
2023-04-10T12:47:29.286Z,102645.06
2023-04-10T12:50:07.791Z,102642.25
2023-04-10T12:52:35.768Z,102603.53
2023-04-10T12:55:13.594Z,102632.28
2023-04-10T12:57:42.578Z,102593.81
2023-04-10T13:00:12.795Z,102623.19
2023-04-10T13:02:41.034Z,102613.63
2023-04-10T13:05:09.520Z,102632.78
2023-04-10T13:07:37.390Z,102624.81
2023-04-10T13:10:05.834Z,102617.63
2023-04-10T13:12:34.972Z,102622.97
2023-04-10T13:15:02.919Z,102619.56
2023-04-10T13:17:30.024Z,102628.44
2023-04-10T13:19:57.016Z,102626.72
2023-04-10T13:22:23.947Z,102623.34
2023-04-10T13:24:50.995Z,102569.47
2023-04-10T13:27:18.004Z,102619.19
2023-04-10T13:29:44.985Z,102614.88
2023-04-10T13:32:11.911Z,102601.78
2023-04-10T13:34:38.836Z,102608.88
2023-04-10T13:37:05.881Z,102610.81
2023-04-10T13:39:32.925Z,102604.72
2023-04-10T13:41:59.992Z,102597.72
2023-04-10T13:44:26.913Z,102605.03
2023-04-10T13:46:53.896Z,102594.59
2023-04-10T13:49:22.338Z,102600.94
2023-04-10T13:51:49.313Z,102600.22
2023-04-10T13:54:20.122Z,102593.44
2023-04-10T13:56:47.239Z,102596.00
2023-04-10T13:59:14.502Z,102591.72
2023-04-10T14:01:41.466Z,102551.69
2023-04-10T14:04:08.699Z,102582.19
2023-04-10T14:06:35.962Z,102581.50
2023-04-10T14:09:02.989Z,102569.41
2023-04-10T14:11:30.442Z,102565.00
2023-04-10T14:13:57.321Z,102556.72
2023-04-10T14:16:24.361Z,102576.88
2023-04-10T14:18:51.321Z,102515.06
2023-04-10T14:21:20.433Z,102578.03
2023-04-10T14:23:47.957Z,102569.19
2023-04-10T14:26:14.928Z,102531.63
2023-04-10T14:28:42.529Z,102565.81
2023-04-10T14:31:09.549Z,102555.28
2023-04-10T14:33:36.537Z,102535.38
2023-04-10T14:36:03.758Z,102555.53
2023-04-10T14:38:30.789Z,102554.81
2023-04-10T14:40:58.052Z,102549.66
2023-04-10T14:43:25.090Z,102553.41
2023-04-10T14:45:51.928Z,102554.53
2023-04-10T14:48:21.312Z,102554.72
2023-04-10T14:50:49.521Z,102554.03
2023-04-10T14:53:16.888Z,102527.13
2023-04-10T14:55:43.887Z,102544.72
2023-04-10T14:58:11.368Z,102550.22
2023-04-10T15:00:38.343Z,102557.56
2023-04-10T15:03:06.505Z,102554.28
2023-04-10T15:05:33.668Z,102552.72
2023-04-10T15:08:00.709Z,102559.22
2023-04-10T15:10:33.156Z,102532.09
2023-04-10T15:13:00.107Z,102544.59
2023-04-10T15:15:26.937Z,102535.94
2023-04-10T15:17:54.434Z,102542.28
2023-04-10T15:20:22.782Z,102534.59
2023-04-10T15:22:49.701Z,102533.84
2023-04-10T15:25:16.791Z,102535.81
2023-04-10T15:27:43.619Z,102529.75
2023-04-10T15:30:11.102Z,102531.69
2023-04-10T15:32:38.429Z,102524.78
2023-04-10T15:35:06.244Z,102528.41
2023-04-10T15:37:35.078Z,102522.34
2023-04-10T15:40:03.993Z,102518.94
2023-04-10T15:42:30.817Z,102519.97
2023-04-10T15:44:57.757Z,102512.09
2023-04-10T15:47:24.766Z,102506.91
2023-04-10T15:49:51.654Z,102428.41
2023-04-10T15:52:18.570Z,102507.19
2023-04-10T15:54:45.668Z,102509.16
2023-04-10T15:57:12.581Z,102504.88
2023-04-10T15:59:39.568Z,102494.44
2023-04-10T16:02:06.659Z,102503.31
2023-04-10T16:04:35.126Z,102492.84
2023-04-10T16:07:02.577Z,102473.59
2023-04-10T16:09:30.694Z,102450.97
2023-04-10T16:11:57.937Z,102486.97
2023-04-10T16:14:24.930Z,102484.44
2023-04-10T16:16:51.940Z,102477.47
2023-04-10T16:19:19.107Z,102477.56
2023-04-10T16:21:46.154Z,102470.59
2023-04-10T16:24:13.036Z,102462.84
2023-04-10T16:26:39.869Z,102471.66
2023-04-10T16:29:06.805Z,102465.56
2023-04-10T16:31:33.825Z,102427.16
2023-04-10T16:34:01.378Z,102453.53
2023-04-10T16:36:28.317Z,102436.97
2023-04-10T16:38:55.289Z,102458.06
2023-04-10T16:41:22.864Z,102454.63
2023-04-10T16:43:49.869Z,102436.38
2023-04-10T16:46:19.116Z,102412.91
2023-04-10T16:48:46.187Z,102432.09
2023-04-10T16:51:17.651Z,102447.94
2023-04-10T16:53:44.970Z,102449.84
2023-04-10T16:56:12.107Z,102442.00
2023-04-10T16:58:41.208Z,102440.31
2023-04-10T17:01:25.339Z,102439.56
2023-04-10T17:03:53.463Z,102442.31
2023-04-10T17:06:20.615Z,102439.78
2023-04-10T17:08:47.465Z,102434.66
2023-04-10T17:11:14.705Z,102441.81
2023-04-10T17:13:42.340Z,102401.56
2023-04-10T17:16:09.831Z,102440.22
2023-04-10T17:18:37.171Z,102433.34
2023-04-10T17:21:04.381Z,102440.44
2023-04-10T17:23:31.374Z,102438.81
2023-04-10T17:25:58.214Z,102433.63
2023-04-10T17:28:25.157Z,102410.03
2023-04-10T17:30:52.089Z,102432.03
2023-04-10T17:33:19.282Z,102432.13
2023-04-10T17:35:46.344Z,102422.53
2023-04-10T17:38:13.476Z,102429.66
2023-04-10T17:40:41.200Z,102431.50
2023-04-10T17:43:08.803Z,102421.00
2023-04-10T17:45:39.859Z,102421.06
2023-04-10T17:48:07.149Z,102424.69
2023-04-10T17:50:34.283Z,102418.63
2023-04-10T17:53:01.212Z,102423.94
2023-04-10T17:55:28.518Z,102423.13
2023-04-10T17:57:57.914Z,102422.31
2023-04-10T18:00:25.039Z,102353.28
2023-04-10T18:02:58.003Z,102434.84
2023-04-10T18:05:25.530Z,102431.38
2023-04-10T18:07:52.895Z,102407.81
2023-04-10T18:10:19.792Z,102426.22
2023-04-10T18:12:46.937Z,102422.75
2023-04-10T18:15:16.592Z,102421.94
2023-04-10T18:17:43.569Z,102422.88
2023-04-10T18:20:10.971Z,102352.84
2023-04-10T18:22:37.899Z,102432.66
2023-04-10T18:25:05.775Z,102430.03
2023-04-10T18:27:34.788Z,102430.09
2023-04-10T18:30:02.081Z,102427.50
2023-04-10T18:32:29.136Z,102360.03
2023-04-10T18:34:56.194Z,102371.47
2023-04-10T18:37:23.049Z,102416.19
2023-04-10T18:39:49.904Z,102413.56
2023-04-10T18:42:16.899Z,102404.88
2023-04-10T18:44:43.761Z,102347.97
2023-04-10T18:47:11.197Z,102412.84
2023-04-10T18:49:38.206Z,102412.00
2023-04-10T18:52:05.147Z,102412.91
2023-04-10T18:54:33.846Z,102412.94
2023-04-10T18:57:01.142Z,102380.56
2023-04-10T18:59:28.479Z,102414.78
2023-04-10T19:01:56.261Z,102410.41
2023-04-10T19:04:23.446Z,102398.19
2023-04-10T19:06:51.337Z,102369.31
2023-04-10T19:09:18.583Z,102413.13
2023-04-10T19:11:45.677Z,102399.97
2023-04-10T19:14:12.586Z,102398.28
2023-04-10T19:16:39.591Z,102395.69
2023-04-10T19:19:06.855Z,102403.59
2023-04-10T19:21:34.531Z,102401.81
2023-04-10T19:24:01.482Z,102408.94
2023-04-10T19:26:28.490Z,102393.13
2023-04-10T19:28:55.539Z,102391.41
2023-04-10T19:31:23.933Z,102407.25
2023-04-10T19:33:51.046Z,102400.25
2023-04-10T19:36:18.679Z,102394.09
2023-04-10T19:38:48.936Z,102400.28
2023-04-10T19:41:16.485Z,102398.53
2023-04-10T19:43:43.779Z,102392.41
2023-04-10T19:46:20.709Z,102388.00
2023-04-10T19:48:48.916Z,102354.75
2023-04-10T19:51:15.978Z,102388.94
2023-04-10T19:53:43.261Z,102384.56
2023-04-10T19:56:10.247Z,102381.94
2023-04-10T19:58:41.143Z,102335.47
2023-04-10T20:01:09.059Z,102374.91
2023-04-10T20:03:37.134Z,102362.66
2023-04-10T20:06:07.475Z,102370.53
2023-04-10T20:08:35.659Z,102377.59
2023-04-10T20:11:06.181Z,102376.69
2023-04-10T20:13:34.513Z,102331.13
2023-04-10T20:16:01.949Z,102377.63
2023-04-10T20:18:28.926Z,102375.00
2023-04-10T20:20:55.968Z,102381.16
2023-04-10T20:23:22.901Z,102381.16
2023-04-10T20:25:49.944Z,102374.13
2023-04-10T20:28:17.624Z,102369.78
2023-04-10T20:30:44.562Z,102370.66
2023-04-10T20:33:11.478Z,102372.41
2023-04-10T20:35:38.685Z,102370.66
2023-04-10T20:38:05.941Z,102346.94
2023-04-10T20:40:33.145Z,102368.91
2023-04-10T20:43:00.051Z,102374.19
2023-04-10T20:45:27.003Z,102291.78
2023-04-10T20:47:56.458Z,102369.81
2023-04-10T20:50:23.711Z,102340.88
2023-04-10T20:52:51.047Z,102360.13
2023-04-10T20:55:18.283Z,102359.31
2023-04-10T20:57:45.334Z,102322.47
2023-04-10T21:00:13.045Z,102319.84
2023-04-10T21:02:40.139Z,102353.13
2023-04-10T21:05:07.458Z,102296.16
2023-04-10T21:07:34.370Z,102346.13
2023-04-10T21:10:01.403Z,102347.88
2023-04-10T21:12:28.264Z,102343.50
2023-04-10T21:14:55.305Z,102325.94
2023-04-10T21:17:22.457Z,102342.63
2023-04-10T21:19:49.426Z,102343.50
2023-04-10T21:22:16.741Z,102329.47
2023-04-10T21:24:43.693Z,102332.13
2023-04-10T21:27:11.159Z,102317.22
2023-04-10T21:29:38.154Z,102318.06
2023-04-10T21:32:05.301Z,102339.13
2023-04-10T21:34:32.254Z,102347.03
2023-04-10T21:36:59.548Z,102324.19
2023-04-10T21:39:26.482Z,102331.19
2023-04-10T21:41:53.604Z,102333.00
2023-04-10T21:44:21.093Z,102307.56
2023-04-10T21:46:48.170Z,102325.09
2023-04-10T21:49:15.421Z,102319.84
2023-04-10T21:51:42.561Z,102326.84
2023-04-10T21:54:09.549Z,102299.66
2023-04-10T21:56:38.770Z,102322.47
2023-04-10T21:59:05.705Z,102322.47
2023-04-10T22:01:33.981Z,102316.31
2023-04-10T22:04:01.193Z,102318.94
2023-04-10T22:06:28.269Z,102265.44
2023-04-10T22:08:55.531Z,102301.41
2023-04-10T22:11:22.574Z,102310.13
2023-04-10T22:13:49.659Z,102311.00
2023-04-10T22:16:16.661Z,102227.75
2023-04-10T22:18:43.528Z,102297.84
2023-04-10T22:21:10.795Z,102296.94
2023-04-10T22:23:37.948Z,102303.09
2023-04-10T22:26:05.075Z,102304.00
2023-04-10T22:28:32.157Z,102294.34
2023-04-10T22:30:59.274Z,102280.31
2023-04-10T22:33:26.201Z,102289.03
2023-04-10T22:35:53.769Z,102294.31
2023-04-10T22:38:20.875Z,102284.66
2023-04-10T22:40:47.783Z,102285.53
2023-04-10T22:43:14.872Z,102277.63
2023-04-10T22:45:42.112Z,102284.66
2023-04-10T22:48:09.096Z,102263.59
2023-04-10T22:50:36.647Z,102267.94
2023-04-10T22:53:03.758Z,102257.41
2023-04-10T22:55:30.747Z,102263.56
2023-04-10T22:57:57.704Z,102270.59
2023-04-10T23:00:24.913Z,102236.44
2023-04-10T23:02:52.050Z,102259.19
2023-04-10T23:05:19.087Z,102258.28
2023-04-10T23:07:46.143Z,102261.81
2023-04-10T23:10:13.055Z,102258.28
2023-04-10T23:12:40.226Z,102261.81
2023-04-10T23:15:07.896Z,102247.75
2023-04-10T23:17:34.917Z,102244.25
2023-04-10T23:20:02.221Z,102252.13
2023-04-10T23:22:29.688Z,102250.41
2023-04-10T23:24:57.581Z,102246.84
2023-04-10T23:27:24.860Z,102238.13
2023-04-10T23:29:51.927Z,102225.84
2023-04-10T23:32:18.825Z,102243.38
2023-04-10T23:34:45.890Z,102231.94
2023-04-10T23:37:13.069Z,102224.91
2023-04-10T23:39:40.007Z,102217.00
2023-04-10T23:42:07.107Z,102239.84
2023-04-10T23:44:34.477Z,102227.53
2023-04-10T23:47:01.450Z,102226.69
2023-04-10T23:49:28.951Z,102237.19
2023-04-10T23:51:55.799Z,102228.41
2023-04-10T23:54:22.729Z,102234.56
2023-04-10T23:56:49.691Z,102225.75
2023-04-10T23:59:17.110Z,102233.66
